KATW/ATW METAR and TAF weather

Enter ICAO airport designator
Station Type Date Time Source
KATW METAR 2020/02/19 11:20 UTC NOAA

KATW 191120Z 28007KT 10SM SKC M18/M24 A3049 RMK FIRST


Station Type Date Time Source
KATW Decoded METAR 2020/02/19 11:20 UTC NOAA

Appleton / Outagamie, WI, United States (KATW) 44-15N 088-31W
Feb 19, 2020 - 06:20 AM EST / 2020.02.19 1120 UTC
Wind: from the W (280 degrees) at 8 MPH (7 KT):0
Visibility: 10 mile(s):0
Sky conditions: clear
Temperature: 0 F (-18 C)
Windchill: -14 F (-26 C):2
Dew Point: -11 F (-24 C)
Relative Humidity: 59%
Pressure (altimeter): 30.49 in. Hg (1032 hPa)
ob: KATW 191120Z 28007KT 10SM SKC M18/M24 A3049 RMK FIRST
cycle: 11

Station Type Date Time Source
KATW TAF 2020/02/19 12:34 UTC NOAA

TAF KATW 191132Z 1912/2012 28008KT P6SM FEW090
FM191600 28011G17KT P6SM SKC
FM192300 30007KT P6SM SKC

Example: see airport list